createdAt,value
2023-03-06T00:00:19.000Z,3.50
2023-03-06T00:01:19.000Z,3.54
2023-03-06T00:02:19.000Z,3.54
2023-03-06T00:03:19.000Z,3.52
2023-03-06T00:04:19.000Z,3.50
2023-03-06T00:05:19.000Z,3.52
2023-03-06T00:06:19.000Z,3.56
2023-03-06T00:07:19.000Z,3.52
2023-03-06T00:08:19.000Z,3.52
2023-03-06T00:09:19.000Z,3.53
2023-03-06T00:10:19.000Z,3.49
2023-03-06T00:11:19.000Z,3.53
2023-03-06T00:12:19.000Z,3.52
2023-03-06T00:13:19.000Z,3.54
2023-03-06T00:14:19.000Z,3.54
2023-03-06T00:15:19.000Z,3.53
2023-03-06T00:16:19.000Z,3.45
2023-03-06T00:17:19.000Z,3.52
2023-03-06T00:18:19.000Z,3.52
2023-03-06T00:19:19.000Z,3.52
2023-03-06T00:20:19.000Z,3.44
2023-03-06T00:21:19.000Z,3.44
2023-03-06T00:22:19.000Z,3.49
2023-03-06T00:23:19.000Z,3.50
2023-03-06T00:24:19.000Z,3.45
2023-03-06T00:25:19.000Z,3.49
2023-03-06T00:26:19.000Z,3.52
2023-03-06T00:27:19.000Z,3.46
2023-03-06T00:28:19.000Z,3.42
2023-03-06T00:29:19.000Z,3.49
2023-03-06T00:30:19.000Z,3.42
2023-03-06T00:31:19.000Z,3.42
2023-03-06T00:32:19.000Z,3.45
2023-03-06T00:33:19.000Z,3.46
2023-03-06T00:34:19.000Z,3.42
2023-03-06T00:35:19.000Z,3.41
2023-03-06T00:36:19.000Z,3.44
2023-03-06T00:37:19.000Z,3.42
2023-03-06T00:38:19.000Z,3.44
2023-03-06T00:39:19.000Z,3.44
2023-03-06T00:40:19.000Z,3.45
2023-03-06T00:41:19.000Z,3.39
2023-03-06T00:42:19.000Z,3.44
2023-03-06T00:43:19.000Z,3.34
2023-03-06T00:44:19.000Z,3.37
2023-03-06T00:45:19.000Z,3.42
2023-03-06T00:46:19.000Z,3.44
2023-03-06T00:47:19.000Z,3.44
2023-03-06T00:48:19.000Z,3.44
2023-03-06T00:49:19.000Z,3.37
2023-03-06T00:50:19.000Z,3.41
2023-03-06T00:51:19.000Z,3.44
2023-03-06T00:52:19.000Z,3.37
2023-03-06T00:53:19.000Z,3.34
2023-03-06T00:54:19.000Z,3.35
2023-03-06T00:55:19.000Z,3.34
2023-03-06T00:56:19.000Z,3.31
2023-03-06T00:57:19.000Z,3.30
2023-03-06T00:58:19.000Z,3.35
2023-03-06T00:59:19.000Z,3.33
2023-03-06T01:00:19.000Z,3.31
2023-03-06T01:01:19.000Z,3.33
2023-03-06T01:02:19.000Z,3.28
2023-03-06T01:03:19.000Z,3.28
2023-03-06T01:04:19.000Z,3.31
2023-03-06T01:05:19.000Z,3.26
2023-03-06T01:06:19.000Z,3.28
2023-03-06T01:07:19.000Z,3.28
2023-03-06T01:08:19.000Z,3.31
2023-03-06T01:09:19.000Z,3.33
2023-03-06T01:10:19.000Z,3.30
2023-03-06T01:11:19.000Z,3.31
2023-03-06T01:12:19.000Z,3.30
2023-03-06T01:13:19.000Z,3.30
2023-03-06T01:14:19.000Z,3.34
2023-03-06T01:15:19.000Z,3.30
2023-03-06T01:16:19.000Z,3.30
2023-03-06T01:17:19.000Z,3.31
2023-03-06T01:18:19.000Z,3.26
2023-03-06T01:19:19.000Z,3.28
2023-03-06T01:20:19.000Z,3.28
2023-03-06T01:21:19.000Z,3.26
2023-03-06T01:22:19.000Z,3.30
2023-03-06T01:23:18.000Z,3.23
2023-03-06T01:24:18.000Z,3.23
2023-03-06T01:25:18.000Z,3.22
2023-03-06T01:26:18.000Z,3.22
2023-03-06T01:27:18.000Z,3.23
2023-03-06T01:28:18.000Z,3.23
2023-03-06T01:29:18.000Z,3.31
2023-03-06T01:30:18.000Z,3.34
2023-03-06T01:31:18.000Z,3.31
2023-03-06T01:32:18.000Z,3.30
2023-03-06T01:33:18.000Z,3.30
2023-03-06T01:34:18.000Z,3.34
2023-03-06T01:35:18.000Z,3.30
2023-03-06T01:36:18.000Z,3.26
2023-03-06T01:37:18.000Z,3.28
2023-03-06T01:38:18.000Z,3.25
2023-03-06T01:39:18.000Z,3.30
2023-03-06T01:40:18.000Z,3.31
2023-03-06T01:41:18.000Z,3.23
2023-03-06T01:42:18.000Z,3.25
2023-03-06T01:43:18.000Z,3.26
2023-03-06T01:44:18.000Z,3.23
2023-03-06T01:45:18.000Z,3.23
2023-03-06T01:46:18.000Z,3.22
2023-03-06T01:47:18.000Z,3.19
2023-03-06T01:48:18.000Z,3.23
2023-03-06T01:49:18.000Z,3.25
2023-03-06T01:50:18.000Z,3.26
2023-03-06T01:51:18.000Z,3.25
2023-03-06T01:52:18.000Z,3.19
2023-03-06T01:53:18.000Z,3.25
2023-03-06T01:54:18.000Z,3.25
2023-03-06T01:55:18.000Z,3.22
2023-03-06T01:56:18.000Z,3.17
2023-03-06T01:57:18.000Z,3.22
2023-03-06T01:58:18.000Z,3.19
2023-03-06T01:59:18.000Z,3.19
2023-03-06T02:00:18.000Z,3.16
2023-03-06T02:01:18.000Z,3.15
2023-03-06T02:02:18.000Z,3.15
2023-03-06T02:03:18.000Z,3.15
2023-03-06T02:04:18.000Z,3.10
2023-03-06T02:05:18.000Z,3.13
2023-03-06T02:06:18.000Z,3.15
2023-03-06T02:07:18.000Z,3.10
2023-03-06T02:08:18.000Z,3.12
2023-03-06T02:09:18.000Z,3.08
2023-03-06T02:10:18.000Z,3.04
2023-03-06T02:11:18.000Z,3.02
2023-03-06T02:12:18.000Z,3.04
2023-03-06T02:13:18.000Z,3.05
2023-03-06T02:14:18.000Z,3.02
2023-03-06T02:15:18.000Z,3.04
2023-03-06T02:16:18.000Z,2.99
2023-03-06T02:17:18.000Z,3.02
2023-03-06T02:18:18.000Z,2.98
2023-03-06T02:19:18.000Z,2.97
2023-03-06T02:20:18.000Z,2.97
2023-03-06T02:21:18.000Z,2.94
2023-03-06T02:22:18.000Z,2.95
2023-03-06T02:23:18.000Z,2.98
2023-03-06T02:24:18.000Z,2.95
2023-03-06T02:25:18.000Z,3.02
2023-03-06T02:26:18.000Z,2.97
2023-03-06T02:27:18.000Z,2.98
2023-03-06T02:28:18.000Z,2.95
2023-03-06T02:29:18.000Z,2.98
2023-03-06T02:30:18.000Z,2.99
2023-03-06T02:31:18.000Z,2.98
2023-03-06T02:32:18.000Z,2.98
2023-03-06T02:33:18.000Z,2.97
2023-03-06T02:34:18.000Z,2.98
2023-03-06T02:35:18.000Z,2.94
2023-03-06T02:36:18.000Z,2.95
2023-03-06T02:37:18.000Z,2.94
2023-03-06T02:38:18.000Z,2.97
2023-03-06T02:39:18.000Z,2.97
2023-03-06T02:40:18.000Z,2.98
2023-03-06T02:41:18.000Z,2.98
2023-03-06T02:42:18.000Z,2.94
2023-03-06T02:43:18.000Z,2.89
2023-03-06T02:44:18.000Z,2.94
2023-03-06T02:45:18.000Z,2.95
2023-03-06T02:46:18.000Z,2.90
2023-03-06T02:47:18.000Z,2.95
2023-03-06T02:48:18.000Z,2.98
2023-03-06T02:49:18.000Z,2.97
2023-03-06T02:50:18.000Z,2.98
2023-03-06T02:51:18.000Z,2.99
2023-03-06T02:52:18.000Z,2.99
2023-03-06T02:53:18.000Z,2.97
2023-03-06T02:54:18.000Z,2.97
2023-03-06T02:55:18.000Z,2.99
2023-03-06T02:56:18.000Z,2.97
2023-03-06T02:57:18.000Z,2.97
2023-03-06T02:58:18.000Z,3.04
2023-03-06T02:59:18.000Z,3.04
2023-03-06T03:00:18.000Z,2.99
2023-03-06T03:01:18.000Z,3.02
2023-03-06T03:02:18.000Z,2.99
2023-03-06T03:03:18.000Z,3.05
2023-03-06T03:04:18.000Z,3.05
2023-03-06T03:05:18.000Z,3.01
2023-03-06T03:06:18.000Z,3.01
2023-03-06T03:07:18.000Z,2.99
2023-03-06T03:08:18.000Z,2.98
2023-03-06T03:09:18.000Z,3.02
2023-03-06T03:10:18.000Z,3.05
2023-03-06T03:11:17.000Z,3.02
2023-03-06T03:12:17.000Z,3.02
2023-03-06T03:13:17.000Z,3.02
2023-03-06T03:14:17.000Z,2.97
2023-03-06T03:15:17.000Z,3.01
2023-03-06T03:16:17.000Z,2.99
2023-03-06T03:17:17.000Z,3.01
2023-03-06T03:18:17.000Z,3.02
2023-03-06T03:19:17.000Z,3.04
2023-03-06T03:20:17.000Z,2.98
2023-03-06T03:21:17.000Z,2.97
2023-03-06T03:22:17.000Z,2.98
2023-03-06T03:23:17.000Z,2.98
2023-03-06T03:24:17.000Z,2.99
2023-03-06T03:25:17.000Z,3.01
2023-03-06T03:26:17.000Z,2.99
2023-03-06T03:27:17.000Z,3.02
2023-03-06T03:28:17.000Z,2.97
2023-03-06T03:29:17.000Z,2.97
2023-03-06T03:30:17.000Z,2.99
2023-03-06T03:31:17.000Z,2.98
2023-03-06T03:32:17.000Z,2.98
2023-03-06T03:33:17.000Z,2.99
2023-03-06T03:34:17.000Z,2.95
2023-03-06T03:35:17.000Z,2.97
2023-03-06T03:36:17.000Z,2.90
2023-03-06T03:37:17.000Z,2.94
2023-03-06T03:38:17.000Z,2.92
2023-03-06T03:39:17.000Z,2.87
2023-03-06T03:40:17.000Z,2.87
2023-03-06T03:41:17.000Z,2.86
2023-03-06T03:42:17.000Z,2.86
2023-03-06T03:43:17.000Z,2.90
2023-03-06T03:44:17.000Z,2.84
2023-03-06T03:45:17.000Z,2.86
2023-03-06T03:46:17.000Z,2.87
2023-03-06T03:47:17.000Z,2.86
2023-03-06T03:48:17.000Z,2.83
2023-03-06T03:49:17.000Z,2.81
2023-03-06T03:50:17.000Z,2.84
2023-03-06T03:51:17.000Z,2.83
2023-03-06T03:52:17.000Z,2.86
2023-03-06T03:53:17.000Z,2.79
2023-03-06T03:54:17.000Z,2.81
2023-03-06T03:55:17.000Z,2.79
2023-03-06T03:56:17.000Z,2.79
2023-03-06T03:57:17.000Z,2.80
2023-03-06T03:58:17.000Z,2.80
2023-03-06T03:59:17.000Z,2.76
2023-03-06T04:00:17.000Z,2.74
2023-03-06T04:01:17.000Z,2.77
2023-03-06T04:02:17.000Z,2.69
2023-03-06T04:03:17.000Z,2.74
2023-03-06T04:04:17.000Z,2.73
2023-03-06T04:05:17.000Z,2.73
2023-03-06T04:06:17.000Z,2.74
2023-03-06T04:07:17.000Z,2.68
2023-03-06T04:08:17.000Z,2.68
2023-03-06T04:09:17.000Z,2.61
2023-03-06T04:10:17.000Z,2.62
2023-03-06T04:11:17.000Z,2.62
2023-03-06T04:12:17.000Z,2.58
2023-03-06T04:13:17.000Z,2.61
2023-03-06T04:14:17.000Z,2.56
2023-03-06T04:15:17.000Z,2.61
2023-03-06T04:16:17.000Z,2.61
2023-03-06T04:17:17.000Z,2.55
2023-03-06T04:18:17.000Z,2.58
2023-03-06T04:19:17.000Z,2.53
2023-03-06T04:20:17.000Z,2.50
2023-03-06T04:21:17.000Z,2.47
2023-03-06T04:22:17.000Z,2.51
2023-03-06T04:23:17.000Z,2.48
2023-03-06T04:24:17.000Z,2.45
2023-03-06T04:25:17.000Z,2.51
2023-03-06T04:26:17.000Z,2.50
2023-03-06T04:27:17.000Z,2.45
2023-03-06T04:28:17.000Z,2.44
2023-03-06T04:29:17.000Z,2.47
2023-03-06T04:30:17.000Z,2.45
2023-03-06T04:31:17.000Z,2.47
2023-03-06T04:32:17.000Z,2.48
2023-03-06T04:33:17.000Z,2.45
2023-03-06T04:34:17.000Z,2.41
2023-03-06T04:35:17.000Z,2.44
2023-03-06T04:36:17.000Z,2.47
2023-03-06T04:37:17.000Z,2.45
2023-03-06T04:38:17.000Z,2.43
2023-03-06T04:39:17.000Z,2.47
2023-03-06T04:40:17.000Z,2.48
2023-03-06T04:41:17.000Z,2.41
2023-03-06T04:42:17.000Z,2.43
2023-03-06T04:43:17.000Z,2.43
2023-03-06T04:44:17.000Z,2.43
2023-03-06T04:45:17.000Z,2.43
2023-03-06T04:46:17.000Z,2.38
2023-03-06T04:47:17.000Z,2.38
2023-03-06T04:48:17.000Z,2.36
2023-03-06T04:49:17.000Z,2.32
2023-03-06T04:50:17.000Z,2.33
2023-03-06T04:51:17.000Z,2.38
2023-03-06T04:52:17.000Z,2.33
2023-03-06T04:53:17.000Z,2.37
2023-03-06T04:54:17.000Z,2.36
2023-03-06T04:55:17.000Z,2.29
2023-03-06T04:56:17.000Z,2.29
2023-03-06T04:57:17.000Z,2.25
2023-03-06T04:58:17.000Z,2.20
2023-03-06T04:59:17.000Z,2.22
2023-03-06T05:00:16.000Z,2.25
2023-03-06T05:01:16.000Z,2.22
2023-03-06T05:02:16.000Z,2.18
2023-03-06T05:03:16.000Z,2.15
2023-03-06T05:04:16.000Z,2.14
2023-03-06T05:05:16.000Z,2.20
2023-03-06T05:06:16.000Z,2.18
2023-03-06T05:07:16.000Z,2.14
2023-03-06T05:08:16.000Z,2.15
2023-03-06T05:09:16.000Z,2.12
2023-03-06T05:10:16.000Z,2.12
2023-03-06T05:11:16.000Z,2.11
2023-03-06T05:12:16.000Z,2.09
2023-03-06T05:13:16.000Z,2.09
2023-03-06T05:14:16.000Z,2.05
2023-03-06T05:15:16.000Z,2.09
2023-03-06T05:16:16.000Z,2.09
2023-03-06T05:17:16.000Z,2.09
2023-03-06T05:18:16.000Z,2.07
2023-03-06T05:19:16.000Z,2.07
2023-03-06T05:20:16.000Z,2.05
2023-03-06T05:21:16.000Z,2.07
2023-03-06T05:22:16.000Z,2.05
2023-03-06T05:23:16.000Z,2.04
2023-03-06T05:24:16.000Z,1.98
2023-03-06T05:25:16.000Z,2.00
2023-03-06T05:26:16.000Z,2.01
2023-03-06T05:27:16.000Z,2.00
2023-03-06T05:28:16.000Z,1.93
2023-03-06T05:29:16.000Z,1.92
2023-03-06T05:30:16.000Z,1.92
2023-03-06T05:31:16.000Z,1.95
2023-03-06T05:32:16.000Z,1.92
2023-03-06T05:33:16.000Z,1.90
2023-03-06T05:34:16.000Z,1.93
2023-03-06T05:35:16.000Z,1.93
2023-03-06T05:36:16.000Z,1.89
2023-03-06T05:37:16.000Z,1.90
2023-03-06T05:38:16.000Z,1.88
2023-03-06T05:39:16.000Z,1.85
2023-03-06T05:40:16.000Z,1.92
2023-03-06T05:41:16.000Z,1.95
2023-03-06T05:42:16.000Z,2.00
2023-03-06T05:43:16.000Z,2.00
2023-03-06T05:44:16.000Z,2.00
2023-03-06T05:45:16.000Z,2.00
2023-03-06T05:46:16.000Z,2.01
2023-03-06T05:47:16.000Z,2.00
2023-03-06T05:48:16.000Z,2.07
2023-03-06T05:49:16.000Z,2.00
2023-03-06T05:50:16.000Z,2.04
2023-03-06T05:51:16.000Z,1.98
2023-03-06T05:52:16.000Z,2.02
2023-03-06T05:53:16.000Z,2.04
2023-03-06T05:54:16.000Z,2.04
2023-03-06T05:55:16.000Z,2.05
2023-03-06T05:56:16.000Z,2.04
2023-03-06T05:57:16.000Z,2.04
2023-03-06T05:58:16.000Z,2.08
2023-03-06T05:59:16.000Z,2.12
2023-03-06T06:00:16.000Z,2.09
2023-03-06T06:01:16.000Z,2.12
2023-03-06T06:02:16.000Z,2.14
2023-03-06T06:03:16.000Z,2.14
2023-03-06T06:04:16.000Z,2.19
2023-03-06T06:05:16.000Z,2.20
2023-03-06T06:06:16.000Z,2.20
2023-03-06T06:07:16.000Z,2.20
2023-03-06T06:08:16.000Z,2.19
2023-03-06T06:09:16.000Z,2.22
2023-03-06T06:10:16.000Z,2.19
2023-03-06T06:11:16.000Z,2.19
2023-03-06T06:12:16.000Z,2.15
2023-03-06T06:13:16.000Z,2.19
2023-03-06T06:14:16.000Z,2.22
2023-03-06T06:15:16.000Z,2.19
2023-03-06T06:16:16.000Z,2.25
2023-03-06T06:17:16.000Z,2.25
2023-03-06T06:18:16.000Z,2.23
2023-03-06T06:19:16.000Z,2.22
2023-03-06T06:20:16.000Z,2.26
2023-03-06T06:21:16.000Z,2.26
2023-03-06T06:22:16.000Z,2.23
2023-03-06T06:23:16.000Z,2.25
2023-03-06T06:24:16.000Z,2.23
2023-03-06T06:25:16.000Z,2.27
2023-03-06T06:26:16.000Z,2.29
2023-03-06T06:27:16.000Z,2.26
2023-03-06T06:28:16.000Z,2.26
2023-03-06T06:29:16.000Z,2.25
2023-03-06T06:30:16.000Z,2.26
2023-03-06T06:31:16.000Z,2.29
2023-03-06T06:32:16.000Z,2.33
2023-03-06T06:33:16.000Z,2.32
2023-03-06T06:34:16.000Z,2.29
2023-03-06T06:35:16.000Z,2.32
2023-03-06T06:36:16.000Z,2.36
2023-03-06T06:37:16.000Z,2.33
2023-03-06T06:38:16.000Z,2.38
2023-03-06T06:39:16.000Z,2.33
2023-03-06T06:40:16.000Z,2.38
2023-03-06T06:41:16.000Z,2.40
2023-03-06T06:42:16.000Z,2.37
2023-03-06T06:43:16.000Z,2.37
2023-03-06T06:44:16.000Z,2.41
2023-03-06T06:45:16.000Z,2.38
2023-03-06T06:46:16.000Z,2.38
2023-03-06T06:47:16.000Z,2.44
2023-03-06T06:48:16.000Z,2.41
2023-03-06T06:49:15.000Z,2.45
2023-03-06T06:50:15.000Z,2.41
2023-03-06T06:51:15.000Z,2.44
2023-03-06T06:52:15.000Z,2.44
2023-03-06T06:53:15.000Z,2.47
2023-03-06T06:54:15.000Z,2.40
2023-03-06T06:55:15.000Z,2.48
2023-03-06T06:56:15.000Z,2.50
2023-03-06T06:57:15.000Z,2.47
2023-03-06T06:58:15.000Z,2.53
2023-03-06T06:59:15.000Z,2.50
2023-03-06T07:00:15.000Z,2.56
2023-03-06T07:01:15.000Z,2.56
2023-03-06T07:02:15.000Z,2.59
2023-03-06T07:03:15.000Z,2.58
2023-03-06T07:04:15.000Z,2.58
2023-03-06T07:05:15.000Z,2.62
2023-03-06T07:06:15.000Z,2.66
2023-03-06T07:07:15.000Z,2.66
2023-03-06T07:08:15.000Z,2.71
2023-03-06T07:09:15.000Z,2.71
2023-03-06T07:10:15.000Z,2.71
2023-03-06T07:11:15.000Z,2.66
2023-03-06T07:12:15.000Z,2.76
2023-03-06T07:13:15.000Z,2.79
2023-03-06T07:14:15.000Z,2.73
2023-03-06T07:15:15.000Z,2.79
2023-03-06T07:16:15.000Z,2.79
2023-03-06T07:17:15.000Z,2.76
2023-03-06T07:18:15.000Z,2.81
2023-03-06T07:19:15.000Z,2.80
2023-03-06T07:20:15.000Z,2.84
2023-03-06T07:21:15.000Z,2.87
2023-03-06T07:22:15.000Z,2.89
2023-03-06T07:23:15.000Z,2.84
2023-03-06T07:24:15.000Z,2.92
2023-03-06T07:25:15.000Z,2.90
2023-03-06T07:26:15.000Z,2.90
2023-03-06T07:27:15.000Z,2.95
2023-03-06T07:28:15.000Z,2.95
2023-03-06T07:29:15.000Z,2.97
2023-03-06T07:30:15.000Z,2.94
2023-03-06T07:31:15.000Z,2.97
2023-03-06T07:32:15.000Z,3.01
2023-03-06T07:33:15.000Z,3.01
2023-03-06T07:34:15.000Z,3.01
2023-03-06T07:35:15.000Z,3.01
2023-03-06T07:36:15.000Z,2.99
2023-03-06T07:37:15.000Z,3.01
2023-03-06T07:38:15.000Z,3.01
2023-03-06T07:39:15.000Z,3.07
2023-03-06T07:40:15.000Z,3.02
2023-03-06T07:41:15.000Z,3.05
2023-03-06T07:42:15.000Z,3.02
2023-03-06T07:43:15.000Z,3.07
2023-03-06T07:44:15.000Z,3.04
2023-03-06T07:45:15.000Z,3.08
2023-03-06T07:46:15.000Z,3.08
2023-03-06T07:47:15.000Z,3.07
2023-03-06T07:48:15.000Z,3.08
2023-03-06T07:49:15.000Z,3.12
2023-03-06T07:50:15.000Z,3.10
2023-03-06T07:51:15.000Z,3.10
2023-03-06T07:52:15.000Z,3.17
2023-03-06T07:53:15.000Z,3.16
2023-03-06T07:54:15.000Z,3.10
2023-03-06T07:55:15.000Z,3.19
2023-03-06T07:56:15.000Z,3.16
2023-03-06T07:57:15.000Z,3.17
2023-03-06T07:58:15.000Z,3.25
2023-03-06T07:59:15.000Z,3.25
2023-03-06T08:00:15.000Z,3.30
2023-03-06T08:01:15.000Z,3.26
2023-03-06T08:02:15.000Z,3.34
2023-03-06T08:03:15.000Z,3.30
2023-03-06T08:04:15.000Z,3.37
2023-03-06T08:05:15.000Z,3.37
2023-03-06T08:06:15.000Z,3.39
2023-03-06T08:07:15.000Z,3.45
2023-03-06T08:08:15.000Z,3.49
2023-03-06T08:09:15.000Z,3.49
2023-03-06T08:10:15.000Z,3.53
2023-03-06T08:11:15.000Z,3.53
2023-03-06T08:12:15.000Z,3.53
2023-03-06T08:13:15.000Z,3.60
2023-03-06T08:14:15.000Z,3.62
2023-03-06T08:15:15.000Z,3.60
2023-03-06T08:16:15.000Z,3.67
2023-03-06T08:17:15.000Z,3.67
2023-03-06T08:18:15.000Z,3.71
2023-03-06T08:19:15.000Z,3.72
2023-03-06T08:20:15.000Z,3.70
2023-03-06T08:21:15.000Z,3.71
2023-03-06T08:22:15.000Z,3.71
2023-03-06T08:23:15.000Z,3.77
2023-03-06T08:24:15.000Z,3.75
2023-03-06T08:25:15.000Z,3.75
2023-03-06T08:26:15.000Z,3.78
2023-03-06T08:27:15.000Z,3.75
2023-03-06T08:28:15.000Z,3.80
2023-03-06T08:29:15.000Z,3.77
2023-03-06T08:30:15.000Z,3.81
2023-03-06T08:31:15.000Z,3.78
2023-03-06T08:32:15.000Z,3.81
2023-03-06T08:33:15.000Z,3.77
2023-03-06T08:34:15.000Z,3.81
2023-03-06T08:35:15.000Z,3.84
2023-03-06T08:36:15.000Z,3.86
2023-03-06T08:37:15.000Z,3.80
2023-03-06T08:38:14.000Z,3.77
2023-03-06T08:39:14.000Z,3.84
2023-03-06T08:40:14.000Z,3.82
2023-03-06T08:41:14.000Z,3.77
2023-03-06T08:42:14.000Z,3.78
2023-03-06T08:43:14.000Z,3.82
2023-03-06T08:44:14.000Z,3.80
2023-03-06T08:45:14.000Z,3.84
2023-03-06T08:46:14.000Z,3.86
2023-03-06T08:47:14.000Z,3.88
2023-03-06T08:48:14.000Z,3.86
2023-03-06T08:49:14.000Z,3.86
2023-03-06T08:50:14.000Z,3.84
2023-03-06T08:51:14.000Z,3.89
2023-03-06T08:52:14.000Z,3.82
2023-03-06T08:53:14.000Z,3.86
2023-03-06T08:54:14.000Z,3.88
2023-03-06T08:55:14.000Z,3.88
2023-03-06T08:56:14.000Z,3.84
2023-03-06T08:57:14.000Z,3.88
2023-03-06T08:58:14.000Z,3.88
2023-03-06T08:59:14.000Z,3.88
2023-03-06T09:00:14.000Z,3.88
2023-03-06T09:01:14.000Z,3.92
2023-03-06T09:02:14.000Z,3.93
2023-03-06T09:03:14.000Z,3.89
2023-03-06T09:04:14.000Z,3.90
2023-03-06T09:05:14.000Z,3.90
2023-03-06T09:06:14.000Z,3.89
2023-03-06T09:07:14.000Z,3.88
2023-03-06T09:08:14.000Z,3.84
2023-03-06T09:09:14.000Z,3.92
2023-03-06T09:10:14.000Z,3.89
2023-03-06T09:11:14.000Z,3.86
2023-03-06T09:12:14.000Z,3.84
2023-03-06T09:13:14.000Z,3.88
2023-03-06T09:14:14.000Z,3.84
2023-03-06T09:15:14.000Z,3.89
2023-03-06T09:16:14.000Z,3.89
2023-03-06T09:17:14.000Z,3.90
2023-03-06T09:18:14.000Z,3.89
2023-03-06T09:19:14.000Z,3.86
2023-03-06T09:20:14.000Z,3.90
2023-03-06T09:21:14.000Z,3.92
2023-03-06T09:22:14.000Z,3.96
2023-03-06T09:23:14.000Z,3.95
2023-03-06T09:24:14.000Z,3.95
2023-03-06T09:25:14.000Z,4.02
2023-03-06T09:26:14.000Z,4.07
2023-03-06T09:27:14.000Z,4.13
2023-03-06T09:28:14.000Z,4.11
2023-03-06T09:29:14.000Z,4.14
2023-03-06T09:30:14.000Z,4.17
2023-03-06T09:31:14.000Z,4.21
2023-03-06T09:32:14.000Z,4.26
2023-03-06T09:33:14.000Z,4.34
2023-03-06T09:34:14.000Z,4.42
2023-03-06T09:35:14.000Z,4.42
2023-03-06T09:36:14.000Z,4.50
2023-03-06T09:37:14.000Z,4.51
2023-03-06T09:38:14.000Z,4.65
2023-03-06T09:39:14.000Z,4.65
2023-03-06T09:40:14.000Z,4.74
2023-03-06T09:41:14.000Z,4.77
2023-03-06T09:42:14.000Z,4.80
2023-03-06T09:43:14.000Z,4.84
2023-03-06T09:44:14.000Z,4.84
2023-03-06T09:45:14.000Z,4.90
2023-03-06T09:46:14.000Z,4.93
2023-03-06T09:47:14.000Z,4.97
2023-03-06T09:48:14.000Z,4.96
2023-03-06T09:49:14.000Z,5.02
2023-03-06T09:50:14.000Z,5.05
2023-03-06T09:51:14.000Z,5.02
2023-03-06T09:52:14.000Z,5.06
2023-03-06T09:53:14.000Z,5.06
2023-03-06T09:54:14.000Z,5.12
2023-03-06T09:55:14.000Z,5.12
2023-03-06T09:56:14.000Z,5.14
2023-03-06T09:57:14.000Z,5.15
2023-03-06T09:58:14.000Z,5.12
2023-03-06T09:59:14.000Z,5.17
2023-03-06T10:00:14.000Z,5.20
2023-03-06T10:01:14.000Z,5.19
2023-03-06T10:02:14.000Z,5.24
2023-03-06T10:03:14.000Z,5.29
2023-03-06T10:04:14.000Z,5.32
2023-03-06T10:05:14.000Z,5.41
2023-03-06T10:06:14.000Z,5.42
2023-03-06T10:07:14.000Z,5.42
2023-03-06T10:08:14.000Z,5.48
2023-03-06T10:09:14.000Z,5.55
2023-03-06T10:10:14.000Z,5.65
2023-03-06T10:11:14.000Z,5.69
2023-03-06T10:12:14.000Z,5.78
2023-03-06T10:13:14.000Z,5.84
2023-03-06T10:14:14.000Z,5.93
2023-03-06T10:15:14.000Z,5.95
2023-03-06T10:16:14.000Z,6.03
2023-03-06T10:17:14.000Z,6.05
2023-03-06T10:18:14.000Z,6.03
2023-03-06T10:19:14.000Z,6.01
2023-03-06T10:20:14.000Z,6.02
2023-03-06T10:21:14.000Z,5.99
2023-03-06T10:22:14.000Z,5.98
2023-03-06T10:23:14.000Z,5.96
2023-03-06T10:24:14.000Z,5.98
2023-03-06T10:25:13.000Z,5.96
2023-03-06T10:26:13.000Z,5.96
2023-03-06T10:27:13.000Z,5.98
2023-03-06T10:28:13.000Z,5.96
2023-03-06T10:29:13.000Z,5.98
2023-03-06T10:30:13.000Z,6.06
2023-03-06T10:31:13.000Z,6.05
2023-03-06T10:32:13.000Z,6.08
2023-03-06T10:33:13.000Z,6.11
2023-03-06T10:34:13.000Z,6.14
2023-03-06T10:35:13.000Z,6.14
2023-03-06T10:36:13.000Z,6.16
2023-03-06T10:37:13.000Z,6.21
2023-03-06T10:38:13.000Z,6.28
2023-03-06T10:39:13.000Z,6.36
2023-03-06T10:40:13.000Z,6.38
2023-03-06T10:41:13.000Z,6.42
2023-03-06T10:42:13.000Z,6.40
2023-03-06T10:43:13.000Z,6.45
2023-03-06T10:44:13.000Z,6.40
2023-03-06T10:45:13.000Z,6.43
2023-03-06T10:46:13.000Z,6.46
2023-03-06T10:47:13.000Z,6.42
2023-03-06T10:48:13.000Z,6.43
2023-03-06T10:49:13.000Z,6.38
2023-03-06T10:50:13.000Z,6.33
2023-03-06T10:51:13.000Z,6.33
2023-03-06T10:52:13.000Z,6.32
2023-03-06T10:53:13.000Z,6.28
2023-03-06T10:54:13.000Z,6.24
2023-03-06T11:01:30.000Z,6.03
2023-03-06T11:01:30.000Z,6.06
2023-03-06T11:02:30.000Z,6.06
2023-03-06T11:03:30.000Z,6.03
2023-03-06T11:04:30.000Z,6.03
2023-03-06T11:05:30.000Z,6.10
2023-03-06T11:06:30.000Z,6.08
2023-03-06T11:07:30.000Z,6.14
2023-03-06T11:08:30.000Z,6.21
2023-03-06T11:09:30.000Z,6.27
2023-03-06T11:10:30.000Z,6.35
2023-03-06T11:11:30.000Z,6.48
2023-03-06T11:12:30.000Z,6.50
2023-03-06T11:13:30.000Z,6.53
2023-03-06T11:14:30.000Z,6.57
2023-03-06T11:15:30.000Z,6.57
2023-03-06T11:15:30.000Z,6.57
2023-03-06T11:16:30.000Z,6.55
2023-03-06T11:16:30.000Z,6.55
2023-03-06T11:17:30.000Z,6.60
2023-03-06T11:17:30.000Z,6.60
2023-03-06T11:18:30.000Z,6.69
2023-03-06T11:18:30.000Z,6.69
2023-03-06T11:19:30.000Z,6.69
2023-03-06T11:19:30.000Z,6.69
2023-03-06T11:20:30.000Z,6.79
2023-03-06T11:21:30.000Z,6.82
2023-03-06T11:22:30.000Z,6.91
2023-03-06T11:23:30.000Z,6.96
2023-03-06T11:24:30.000Z,6.94
2023-03-06T11:25:30.000Z,6.96
2023-03-06T11:26:30.000Z,6.94
2023-03-06T11:27:30.000Z,6.96
2023-03-06T11:28:30.000Z,6.93
2023-03-06T11:29:30.000Z,6.94
2023-03-06T11:30:30.000Z,6.96
2023-03-06T11:31:30.000Z,6.97
2023-03-06T11:32:30.000Z,6.93
2023-03-06T11:33:30.000Z,6.90
2023-03-06T11:34:30.000Z,6.87
2023-03-06T11:35:30.000Z,6.93
2023-03-06T11:36:30.000Z,6.93
2023-03-06T11:37:30.000Z,6.94
2023-03-06T11:38:30.000Z,6.94
2023-03-06T11:39:30.000Z,6.96
2023-03-06T11:40:30.000Z,6.97
2023-03-06T11:41:30.000Z,7.00
2023-03-06T11:42:30.000Z,7.01
2023-03-06T11:43:30.000Z,7.07
2023-03-06T11:44:30.000Z,7.08
2023-03-06T11:45:30.000Z,7.15
2023-03-06T11:46:30.000Z,7.19
2023-03-06T11:47:30.000Z,7.21
2023-03-06T11:48:30.000Z,7.24
2023-03-06T11:49:30.000Z,7.27
2023-03-06T11:50:30.000Z,7.29
2023-03-06T11:51:30.000Z,7.29
2023-03-06T11:52:30.000Z,7.32
2023-03-06T11:53:30.000Z,7.34
2023-03-06T11:54:30.000Z,7.32
2023-03-06T11:55:30.000Z,7.34
2023-03-06T11:56:30.000Z,7.33
2023-03-06T11:57:30.000Z,7.29
2023-03-06T11:58:30.000Z,7.21
2023-03-06T11:59:30.000Z,7.19
2023-03-06T12:00:30.000Z,7.14
2023-03-06T12:01:30.000Z,7.12
2023-03-06T12:02:30.000Z,7.15
2023-03-06T12:03:30.000Z,7.09
2023-03-06T12:04:30.000Z,7.11
2023-03-06T12:05:30.000Z,7.07
2023-03-06T12:06:29.000Z,7.00
2023-03-06T12:07:29.000Z,6.97
2023-03-06T12:08:29.000Z,6.96
2023-03-06T12:09:29.000Z,6.91
2023-03-06T12:10:29.000Z,6.89
2023-03-06T12:11:29.000Z,6.89
2023-03-06T12:12:29.000Z,6.83
2023-03-06T12:13:29.000Z,6.82
2023-03-06T12:14:29.000Z,6.78
2023-03-06T12:15:29.000Z,6.76
2023-03-06T12:16:29.000Z,6.75
2023-03-06T12:17:29.000Z,6.71
2023-03-06T12:18:29.000Z,6.68
2023-03-06T12:19:29.000Z,6.64
2023-03-06T12:20:29.000Z,6.63
2023-03-06T12:21:29.000Z,6.58
2023-03-06T12:22:29.000Z,6.53
2023-03-06T12:23:29.000Z,6.53
2023-03-06T12:24:29.000Z,6.46
2023-03-06T12:25:29.000Z,6.40
2023-03-06T12:26:29.000Z,6.38
2023-03-06T12:27:29.000Z,6.32
2023-03-06T12:28:29.000Z,6.25
2023-03-06T12:29:29.000Z,6.21
2023-03-06T12:30:29.000Z,6.17
2023-03-06T12:31:29.000Z,6.10
2023-03-06T12:32:29.000Z,6.02
2023-03-06T12:33:29.000Z,5.99
2023-03-06T12:34:29.000Z,5.90
2023-03-06T12:35:29.000Z,5.84
2023-03-06T12:36:29.000Z,5.77
2023-03-06T12:37:29.000Z,5.74
2023-03-06T12:38:29.000Z,5.70
2023-03-06T12:39:29.000Z,5.66
2023-03-06T12:40:29.000Z,5.65
2023-03-06T12:41:29.000Z,5.63
2023-03-06T12:42:29.000Z,5.63
2023-03-06T12:43:29.000Z,5.60
2023-03-06T12:44:29.000Z,5.62
2023-03-06T12:45:29.000Z,5.73
2023-03-06T12:46:29.000Z,5.75
2023-03-06T12:47:29.000Z,5.80
2023-03-06T12:48:29.000Z,5.83
2023-03-06T12:49:29.000Z,5.81
2023-03-06T12:50:29.000Z,5.88
2023-03-06T12:51:29.000Z,5.92
2023-03-06T12:52:29.000Z,5.93
2023-03-06T12:53:29.000Z,6.02
2023-03-06T12:54:29.000Z,6.01
2023-03-06T12:55:29.000Z,6.05
2023-03-06T12:56:29.000Z,6.08
2023-03-06T12:57:29.000Z,6.08
2023-03-06T12:58:29.000Z,6.06
2023-03-06T12:59:29.000Z,6.11
2023-03-06T13:00:29.000Z,6.10
2023-03-06T13:01:29.000Z,6.13
2023-03-06T13:02:29.000Z,6.13
2023-03-06T13:03:29.000Z,6.19
2023-03-06T13:04:29.000Z,6.19
2023-03-06T13:05:29.000Z,6.21
2023-03-06T13:06:29.000Z,6.24
2023-03-06T13:07:29.000Z,6.21
2023-03-06T13:08:29.000Z,6.19
2023-03-06T13:09:29.000Z,6.20
2023-03-06T13:10:29.000Z,6.17
2023-03-06T13:11:29.000Z,6.19
2023-03-06T13:12:29.000Z,6.14
2023-03-06T13:13:29.000Z,6.11
2023-03-06T13:14:29.000Z,6.08
2023-03-06T13:15:29.000Z,6.11
2023-03-06T13:16:29.000Z,6.06
2023-03-06T13:17:29.000Z,6.13
2023-03-06T13:18:29.000Z,6.11